createdAt,value
2016-07-11T00:00:26.975Z,0
2016-07-11T00:01:26.982Z,0
2016-07-11T00:02:26.748Z,0
2016-07-11T00:03:26.987Z,0
2016-07-11T00:04:27.015Z,0
2016-07-11T00:05:27.061Z,0
2016-07-11T00:06:27.130Z,0
2016-07-11T00:07:27.045Z,0
2016-07-11T00:08:26.799Z,0
2016-07-11T00:09:26.931Z,0
2016-07-11T00:10:27.096Z,0
2016-07-11T00:11:27.120Z,0
2016-07-11T00:12:26.993Z,0
2016-07-11T00:13:26.844Z,0
2016-07-11T00:14:27.107Z,0
2016-07-11T00:15:27.052Z,0
2016-07-11T00:16:27.200Z,0
2016-07-11T00:17:26.891Z,0
2016-07-11T00:18:27.188Z,0
2016-07-11T00:19:27.204Z,0
2016-07-11T00:20:27.176Z,0
2016-07-11T00:21:27.226Z,0
2016-07-11T00:22:26.920Z,0
2016-07-11T00:23:26.897Z,0
2016-07-11T00:24:26.925Z,0
2016-07-11T00:25:27.268Z,0
2016-07-11T00:26:26.935Z,0
2016-07-11T00:27:27.191Z,0
2016-07-11T00:28:26.978Z,0
2016-07-11T00:29:26.984Z,0
2016-07-11T00:30:26.996Z,0
2016-07-11T00:31:27.017Z,0
2016-07-11T00:32:27.047Z,0
2016-07-11T00:33:27.223Z,0
2016-07-11T00:34:27.323Z,0
2016-07-11T00:35:27.194Z,0
2016-07-11T00:36:27.047Z,0
2016-07-11T00:37:27.050Z,0
2016-07-11T00:38:27.091Z,0
2016-07-11T00:39:27.262Z,0
2016-07-11T00:40:27.062Z,0
2016-07-11T00:41:27.370Z,0
2016-07-11T00:42:27.070Z,0
2016-07-11T00:43:27.271Z,0
2016-07-11T00:44:27.083Z,0
2016-07-11T00:45:27.077Z,0
2016-07-11T00:46:27.164Z,0
2016-07-11T00:47:27.208Z,0
2016-07-11T00:48:27.158Z,0
2016-07-11T00:49:27.315Z,0
2016-07-11T00:50:27.109Z,0
2016-07-11T00:51:27.195Z,0
2016-07-11T00:52:27.426Z,0
2016-07-11T00:53:27.172Z,0
2016-07-11T00:54:27.145Z,0
2016-07-11T00:55:27.099Z,0
2016-07-11T00:56:27.239Z,0
2016-07-11T00:57:27.202Z,0
2016-07-11T00:58:27.203Z,0
2016-07-11T00:59:27.185Z,0
2016-07-11T01:00:27.383Z,0
2016-07-11T01:01:27.149Z,0
2016-07-11T01:02:27.189Z,0
2016-07-11T01:03:27.208Z,0
2016-07-11T01:04:27.526Z,0
2016-07-11T01:05:27.447Z,0
2016-07-11T01:06:27.203Z,0
2016-07-11T01:07:27.243Z,0
2016-07-11T01:08:27.425Z,0
2016-07-11T01:09:27.288Z,0
2016-07-11T01:10:27.499Z,0
2016-07-11T01:11:27.231Z,0
2016-07-11T01:12:27.259Z,0
2016-07-11T01:13:27.449Z,0
2016-07-11T01:14:27.490Z,0
2016-07-11T01:15:27.215Z,0
2016-07-11T01:16:27.492Z,0
2016-07-11T01:17:27.228Z,0
2016-07-11T01:18:27.490Z,0
2016-07-11T01:19:27.376Z,0
2016-07-11T01:20:27.254Z,0
2016-07-11T01:21:27.286Z,0
2016-07-11T01:22:27.536Z,0
2016-07-11T01:23:27.564Z,0
2016-07-11T01:24:27.414Z,0
2016-07-11T01:25:27.274Z,0
2016-07-11T01:26:27.396Z,0
2016-07-11T01:27:27.307Z,0
2016-07-11T01:28:27.434Z,0
2016-07-11T01:29:27.600Z,0
2016-07-11T01:30:27.418Z,0
2016-07-11T01:31:27.536Z,0
2016-07-11T01:32:27.362Z,0
2016-07-11T01:33:27.614Z,0
2016-07-11T01:34:27.346Z,0
2016-07-11T01:35:27.647Z,0
2016-07-11T01:36:27.396Z,0
2016-07-11T01:37:27.396Z,0
2016-07-11T01:38:27.657Z,0
2016-07-11T01:39:27.705Z,0
2016-07-11T01:40:27.391Z,0
2016-07-11T01:41:27.373Z,0
2016-07-11T01:42:27.630Z,0
2016-07-11T01:43:27.419Z,0
2016-07-11T01:44:27.425Z,0
2016-07-11T01:45:27.743Z,0
2016-07-11T01:46:27.799Z,0
2016-07-11T01:47:27.738Z,0
2016-07-11T01:48:27.556Z,0
2016-07-11T01:49:27.642Z,0
2016-07-11T01:50:27.565Z,0
2016-07-11T01:51:27.816Z,0
2016-07-11T01:52:27.856Z,0
2016-07-11T01:53:27.675Z,0
2016-07-11T01:54:27.627Z,0
2016-07-11T01:55:27.793Z,0
2016-07-11T01:56:27.615Z,0
2016-07-11T01:57:27.633Z,0
2016-07-11T01:58:27.613Z,0
2016-07-11T01:59:27.806Z,0
2016-07-11T02:00:27.664Z,0
2016-07-11T02:01:27.666Z,0
2016-07-11T02:02:27.968Z,0
2016-07-11T02:03:28.019Z,0
2016-07-11T02:04:27.848Z,0
2016-07-11T02:05:27.923Z,0
2016-07-11T02:06:27.859Z,0
2016-07-11T02:07:27.761Z,0
2016-07-11T02:08:27.729Z,0
2016-07-11T02:09:27.730Z,0
2016-07-11T02:10:27.912Z,0
2016-07-11T02:11:28.065Z,0
2016-07-11T02:12:27.803Z,0
2016-07-11T02:13:27.856Z,0
2016-07-11T02:14:27.934Z,0
2016-07-11T02:15:27.790Z,0
2016-07-11T02:16:27.822Z,0
2016-07-11T02:17:27.889Z,0
2016-07-11T02:18:28.157Z,0
2016-07-11T02:19:27.870Z,0
2016-07-11T02:20:28.059Z,0
2016-07-11T02:21:27.897Z,0
2016-07-11T02:22:27.868Z,0
2016-07-11T02:23:28.145Z,0
2016-07-11T02:24:28.023Z,0
2016-07-11T02:25:27.878Z,0
2016-07-11T02:26:28.025Z,0
2016-07-11T02:27:27.974Z,0
2016-07-11T02:28:27.900Z,0
2016-07-11T02:29:27.916Z,0
2016-07-11T02:30:27.919Z,0
2016-07-11T02:31:27.918Z,0
2016-07-11T02:32:27.945Z,0
2016-07-11T02:33:27.934Z,4
2016-07-11T02:34:27.873Z,4
2016-07-11T02:35:27.917Z,4
2016-07-11T02:36:27.875Z,4
2016-07-11T02:37:27.981Z,4
2016-07-11T02:38:29.318Z,4
2016-07-11T02:39:27.890Z,4
2016-07-11T02:40:27.965Z,4
2016-07-11T02:41:27.954Z,8
2016-07-11T02:42:28.175Z,4
2016-07-11T02:43:28.030Z,8
2016-07-11T02:44:28.257Z,8
2016-07-11T02:45:28.266Z,8
2016-07-11T02:46:27.938Z,8
2016-07-11T02:47:27.978Z,12
2016-07-11T02:48:28.032Z,12
2016-07-11T02:49:28.022Z,16
2016-07-11T02:50:28.053Z,16
2016-07-11T02:51:27.999Z,20
2016-07-11T02:52:28.018Z,24
2016-07-11T02:53:28.129Z,28
2016-07-11T02:54:28.079Z,32
2016-07-11T02:55:28.187Z,32
2016-07-11T02:56:28.283Z,36
2016-07-11T02:57:28.413Z,44
2016-07-11T02:58:28.405Z,48
2016-07-11T02:59:28.137Z,52
2016-07-11T03:00:28.186Z,60
2016-07-11T03:01:28.400Z,64
2016-07-11T03:02:28.113Z,68
2016-07-11T03:03:28.456Z,76
2016-07-11T03:04:28.464Z,80
2016-07-11T03:05:28.298Z,84
2016-07-11T03:06:28.142Z,88
2016-07-11T03:07:28.499Z,96
2016-07-11T03:08:28.193Z,104
2016-07-11T03:09:28.362Z,116
2016-07-11T03:10:28.238Z,124
2016-07-11T03:11:28.507Z,144
2016-07-11T03:12:28.227Z,160
2016-07-11T03:13:28.281Z,172
2016-07-11T03:14:28.531Z,192
2016-07-11T03:15:28.542Z,208
2016-07-11T03:16:28.587Z,224
2016-07-11T03:17:28.618Z,240
2016-07-11T03:18:28.330Z,256
2016-07-11T03:19:28.339Z,276
2016-07-11T03:20:28.344Z,292
2016-07-11T03:21:28.624Z,312
2016-07-11T03:22:28.560Z,332
2016-07-11T03:23:28.568Z,360
2016-07-11T03:24:28.471Z,388
2016-07-11T03:25:28.419Z,416
2016-07-11T03:26:28.501Z,456
2016-07-11T03:27:28.486Z,500
2016-07-11T03:28:28.610Z,556
2016-07-11T03:29:28.518Z,616
2016-07-11T03:30:28.842Z,672
2016-07-11T03:31:28.522Z,720
2016-07-11T03:32:28.535Z,760
2016-07-11T03:33:28.585Z,796
2016-07-11T03:34:28.603Z,828
2016-07-11T03:35:28.613Z,848
2016-07-11T03:36:28.876Z,872
2016-07-11T03:37:28.629Z,912
2016-07-11T03:38:28.886Z,956
2016-07-11T03:39:28.633Z,988
2016-07-11T03:40:28.642Z,1004
2016-07-11T03:41:28.686Z,1032
2016-07-11T03:42:28.977Z,1096
2016-07-11T03:43:28.686Z,1188
2016-07-11T03:44:28.893Z,1316
2016-07-11T03:45:28.745Z,1464
2016-07-11T03:46:29.002Z,1624
2016-07-11T03:47:28.904Z,1812
2016-07-11T03:48:28.773Z,1976
2016-07-11T03:49:29.087Z,2100
2016-07-11T03:50:28.804Z,2232
2016-07-11T03:51:28.840Z,2336
2016-07-11T03:52:29.652Z,2388
2016-07-11T03:53:28.890Z,2396
2016-07-11T03:54:28.915Z,2412
2016-07-11T03:55:28.871Z,2432
2016-07-11T03:56:28.871Z,2416
2016-07-11T03:57:29.152Z,2380
2016-07-11T03:58:28.914Z,2328
2016-07-11T03:59:28.946Z,2284
2016-07-11T04:00:28.966Z,2276
2016-07-11T04:01:28.970Z,2292
2016-07-11T04:02:29.133Z,2320
2016-07-11T04:03:28.965Z,2336
2016-07-11T04:04:29.171Z,2336
2016-07-11T04:05:29.003Z,2344
2016-07-11T04:06:28.938Z,2380
2016-07-11T04:07:29.230Z,2436
2016-07-11T04:08:29.227Z,2516
2016-07-11T04:09:28.973Z,2608
2016-07-11T04:10:29.275Z,2632
2016-07-11T04:11:28.978Z,2624
2016-07-11T04:12:29.266Z,2608
2016-07-11T04:13:28.968Z,2636
2016-07-11T04:14:29.274Z,2688
2016-07-11T04:15:28.968Z,2656
2016-07-11T04:16:28.981Z,2636
2016-07-11T04:17:29.228Z,2612
2016-07-11T04:18:29.003Z,2616
2016-07-11T04:19:29.091Z,2644
2016-07-11T04:20:28.980Z,2676
2016-07-11T04:21:29.144Z,2716
2016-07-11T04:22:29.297Z,2768
2016-07-11T04:23:29.298Z,2808
2016-07-11T04:24:29.078Z,2832
2016-07-11T04:25:29.055Z,2852
2016-07-11T04:26:29.104Z,2852
2016-07-11T04:27:29.098Z,2840
2016-07-11T04:28:29.097Z,2828
2016-07-11T04:29:29.047Z,2816
2016-07-11T04:30:29.348Z,2760
2016-07-11T04:31:29.349Z,2724
2016-07-11T04:32:29.101Z,2700
2016-07-11T04:33:29.152Z,2696
2016-07-11T04:34:29.131Z,2696
2016-07-11T04:35:29.087Z,2712
2016-07-11T04:36:29.144Z,2728
2016-07-11T04:37:29.123Z,2756
2016-07-11T04:38:29.142Z,2796
2016-07-11T04:39:29.230Z,2828
2016-07-11T04:40:29.202Z,2860
2016-07-11T04:41:29.201Z,2892
2016-07-11T04:42:29.263Z,2932
2016-07-11T04:43:29.196Z,2968
2016-07-11T04:44:29.190Z,3012
2016-07-11T04:45:29.441Z,3072
2016-07-11T04:46:29.472Z,3140
2016-07-11T04:47:29.615Z,3196
2016-07-11T04:48:29.219Z,3260
2016-07-11T04:49:29.323Z,3360
2016-07-11T04:50:29.206Z,3456
2016-07-11T04:51:29.184Z,3560
2016-07-11T04:52:29.377Z,3596
2016-07-11T04:53:29.405Z,3668
2016-07-11T04:54:29.372Z,3764
2016-07-11T04:55:29.198Z,3912
2016-07-11T04:56:29.278Z,4048
2016-07-11T04:57:29.519Z,4120
2016-07-11T04:58:29.398Z,4120
2016-07-11T04:59:29.223Z,4088
2016-07-11T05:00:29.204Z,4228
2016-07-11T05:01:29.283Z,4344
2016-07-11T05:02:29.213Z,4336
2016-07-11T05:03:29.707Z,4336
2016-07-11T05:04:29.367Z,4328
2016-07-11T05:05:29.225Z,4380
2016-07-11T05:06:29.341Z,4408
2016-07-11T05:07:29.593Z,4444
2016-07-11T05:08:29.328Z,4456
2016-07-11T05:09:29.345Z,4436
2016-07-11T05:10:29.206Z,4372
2016-07-11T05:11:29.333Z,4232
2016-07-11T05:12:29.438Z,4104
2016-07-11T05:13:29.309Z,4052
2016-07-11T05:14:29.247Z,3996
2016-07-11T05:15:29.296Z,4036
2016-07-11T05:16:29.517Z,4024
2016-07-11T05:17:29.430Z,4004
2016-07-11T05:18:29.330Z,3992
2016-07-11T05:19:29.463Z,3964
2016-07-11T05:20:29.239Z,3960
2016-07-11T05:21:29.267Z,3996
2016-07-11T05:22:29.705Z,4004
2016-07-11T05:23:29.356Z,4104
2016-07-11T05:24:29.201Z,4232
2016-07-11T05:25:29.207Z,4348
2016-07-11T05:26:29.223Z,4452
2016-07-11T05:27:29.509Z,4532
2016-07-11T05:28:29.209Z,4564
2016-07-11T05:29:29.205Z,4624
2016-07-11T05:30:29.681Z,4660
2016-07-11T05:31:29.242Z,4692
2016-07-11T05:32:29.420Z,4684
2016-07-11T05:33:29.218Z,4960
2016-07-11T05:34:29.563Z,5000
2016-07-11T05:35:29.263Z,5012
2016-07-11T05:36:29.265Z,5100
2016-07-11T05:37:29.259Z,5180
2016-07-11T05:38:29.548Z,5284
2016-07-11T05:39:29.258Z,5476
2016-07-11T05:40:29.260Z,5652
2016-07-11T05:41:29.211Z,5732
2016-07-11T05:42:29.332Z,5712
2016-07-11T05:43:29.539Z,5664
2016-07-11T05:44:29.558Z,5564
2016-07-11T05:45:29.439Z,5380
2016-07-11T05:46:29.249Z,5100
2016-07-11T05:47:29.271Z,5048
2016-07-11T05:48:29.483Z,5132
2016-07-11T05:49:29.437Z,5412
2016-07-11T05:50:29.254Z,5604
2016-07-11T05:51:29.467Z,5716
2016-07-11T05:52:29.462Z,5812
2016-07-11T05:53:29.470Z,5912
2016-07-11T05:54:29.585Z,5968
2016-07-11T05:55:29.589Z,6024
2016-07-11T05:56:29.461Z,6100
2016-07-11T05:57:29.478Z,6128
2016-07-11T05:58:30.215Z,6000
2016-07-11T05:59:29.294Z,6028
2016-07-11T06:00:29.574Z,6036
2016-07-11T06:01:29.333Z,6104
2016-07-11T06:02:29.462Z,6108
2016-07-11T06:03:29.376Z,6140
2016-07-11T06:04:29.372Z,6168
2016-07-11T06:05:29.421Z,6184
2016-07-11T06:06:29.299Z,6512
2016-07-11T06:07:29.471Z,6524
2016-07-11T06:08:29.403Z,6516
2016-07-11T06:09:29.593Z,6552
2016-07-11T06:10:29.617Z,6428
2016-07-11T06:11:29.649Z,6092
2016-07-11T06:12:29.323Z,5672
2016-07-11T06:13:29.364Z,5816
2016-07-11T06:14:29.645Z,6092
2016-07-11T06:15:29.635Z,6108
2016-07-11T06:16:29.305Z,5768
2016-07-11T06:17:29.627Z,5320
2016-07-11T06:18:29.342Z,5120
2016-07-11T06:19:29.611Z,5524
2016-07-11T06:20:29.536Z,5660
2016-07-11T06:21:29.306Z,5804
2016-07-11T06:22:29.355Z,6112
2016-07-11T06:23:29.617Z,6468
2016-07-11T06:24:29.437Z,6724
2016-07-11T06:25:29.427Z,6844
2016-07-11T06:26:29.327Z,7020
2016-07-11T06:27:29.327Z,7116
2016-07-11T06:28:29.332Z,6900
2016-07-11T06:29:29.559Z,6912
2016-07-11T06:30:29.640Z,7180
2016-07-11T06:31:29.643Z,7344
2016-07-11T06:32:29.585Z,7444
2016-07-11T06:33:29.678Z,7228
2016-07-11T06:34:29.604Z,7052
2016-07-11T06:35:29.659Z,7156
2016-07-11T06:36:29.745Z,7324
2016-07-11T06:37:29.417Z,7276
2016-07-11T06:38:29.417Z,7596
2016-07-11T06:39:29.399Z,8396
2016-07-11T06:40:29.387Z,9228
2016-07-11T06:41:29.369Z,11352
2016-07-11T06:42:29.707Z,11548
2016-07-11T06:43:29.559Z,10452
2016-07-11T06:44:29.702Z,10512
2016-07-11T06:45:29.401Z,10732
2016-07-11T06:46:29.709Z,14464
2016-07-11T06:47:29.404Z,20512
2016-07-11T06:48:29.474Z,21696
2016-07-11T06:49:29.418Z,18464
2016-07-11T06:50:29.433Z,23200
2016-07-11T06:51:29.402Z,23296
2016-07-11T06:52:29.727Z,14544
2016-07-11T06:53:29.390Z,18176
2016-07-11T06:54:29.690Z,28544
2016-07-11T06:55:29.549Z,33024
2016-07-11T06:56:29.616Z,34112
2016-07-11T06:57:29.729Z,34496
2016-07-11T06:58:29.728Z,34528
2016-07-11T06:59:29.446Z,32512
2016-07-11T07:00:29.665Z,31712
2016-07-11T07:01:29.652Z,29696
2016-07-11T07:02:29.436Z,43808
2016-07-11T07:03:29.672Z,34080
2016-07-11T07:04:29.473Z,28800
2016-07-11T07:05:29.768Z,25760
2016-07-11T07:06:29.493Z,27904
2016-07-11T07:07:29.578Z,27168
2016-07-11T07:08:29.783Z,34752
2016-07-11T07:09:29.676Z,31296
2016-07-11T07:10:29.807Z,31328
2016-07-11T07:11:29.494Z,29568
2016-07-11T07:12:29.804Z,31552
2016-07-11T07:13:29.581Z,32320
2016-07-11T07:14:29.534Z,34848
2016-07-11T07:15:29.513Z,37920
2016-07-11T07:16:29.793Z,41088
2016-07-11T07:17:29.798Z,41248
2016-07-11T07:18:29.563Z,48096
2016-07-11T07:19:29.563Z,44576
2016-07-11T07:20:29.565Z,36736
2016-07-11T07:21:29.591Z,35424
2016-07-11T07:22:29.587Z,30624
2016-07-11T07:23:29.562Z,26464
2016-07-11T07:24:29.589Z,24832
2016-07-11T07:25:29.826Z,24000
2016-07-11T07:26:29.595Z,24576
2016-07-11T07:27:29.909Z,27072
2016-07-11T07:28:29.886Z,24416
2016-07-11T07:29:29.852Z,22656
2016-07-11T07:30:29.627Z,20928
2016-07-11T07:31:29.655Z,18880
2016-07-11T07:32:29.956Z,17728
2016-07-11T07:33:29.663Z,17792
2016-07-11T07:34:29.666Z,19936
2016-07-11T07:35:29.859Z,19552
2016-07-11T07:36:29.647Z,19520
2016-07-11T07:37:29.887Z,19584
2016-07-11T07:38:30.569Z,18464
2016-07-11T07:39:29.820Z,19264
2016-07-11T07:40:29.706Z,20448
2016-07-11T07:41:29.895Z,19968
2016-07-11T07:42:29.853Z,20064
2016-07-11T07:43:29.740Z,25792
2016-07-11T07:44:29.968Z,25376
2016-07-11T07:45:30.113Z,23520
2016-07-11T07:46:29.753Z,21952
2016-07-11T07:47:29.756Z,17504
2016-07-11T07:48:29.806Z,21760
2016-07-11T07:49:29.766Z,27936
2016-07-11T07:50:29.806Z,24320
2016-07-11T07:51:30.053Z,20320
2016-07-11T07:52:30.039Z,21312
2016-07-11T07:53:30.042Z,26784
2016-07-11T07:54:30.063Z,23744
2016-07-11T07:55:30.086Z,22880
2016-07-11T07:56:29.812Z,19648
2016-07-11T07:57:30.094Z,20992
2016-07-11T07:58:29.828Z,26816
2016-07-11T07:59:29.812Z,27872
2016-07-11T08:00:29.863Z,33888
2016-07-11T08:01:30.147Z,29312
2016-07-11T08:02:29.863Z,22528
2016-07-11T08:03:29.975Z,18240
2016-07-11T08:04:29.879Z,15620
2016-07-11T08:05:29.966Z,15272
2016-07-11T08:06:29.896Z,15160
2016-07-11T08:07:29.932Z,15356
2016-07-11T08:08:30.148Z,15920
2016-07-11T08:09:30.068Z,15776
2016-07-11T08:10:29.927Z,15844
2016-07-11T08:11:29.958Z,15488
2016-07-11T08:12:30.136Z,15604
2016-07-11T08:13:30.201Z,15256
2016-07-11T08:14:30.055Z,15452
2016-07-11T08:15:30.167Z,15672
2016-07-11T08:16:30.100Z,15904
2016-07-11T08:17:30.010Z,15728
2016-07-11T08:18:30.307Z,15644
2016-07-11T08:19:30.082Z,15756
2016-07-11T08:20:30.294Z,15708
2016-07-11T08:21:30.021Z,15480
2016-07-11T08:22:30.242Z,15500
2016-07-11T08:23:30.300Z,15524
2016-07-11T08:24:30.755Z,15416
2016-07-11T08:25:30.107Z,14672
2016-07-11T08:26:30.028Z,13768
2016-07-11T08:27:30.049Z,13404
2016-07-11T08:28:30.037Z,13728
2016-07-11T08:29:30.061Z,14032
2016-07-11T08:30:30.126Z,13668
2016-07-11T08:31:30.129Z,13380
2016-07-11T08:32:30.112Z,13524
2016-07-11T08:33:30.350Z,12756
2016-07-11T08:34:30.415Z,12296
2016-07-11T08:35:30.113Z,11592
2016-07-11T08:36:30.150Z,10816
2016-07-11T08:37:30.154Z,10104
2016-07-11T08:38:30.171Z,10140
2016-07-11T08:39:30.122Z,9892
2016-07-11T08:40:30.245Z,9568
2016-07-11T08:41:30.135Z,9580
2016-07-11T08:42:30.373Z,9364
2016-07-11T08:43:30.389Z,9220
2016-07-11T08:44:30.194Z,8876
2016-07-11T08:45:30.166Z,8508
2016-07-11T08:46:30.459Z,8468
2016-07-11T08:47:30.419Z,8720
2016-07-11T08:48:30.241Z,9032
2016-07-11T08:49:30.501Z,9388
2016-07-11T08:50:30.304Z,9640
2016-07-11T08:51:30.533Z,9184
2016-07-11T08:52:30.547Z,8924
2016-07-11T08:53:30.264Z,8808
2016-07-11T08:54:30.445Z,8228
2016-07-11T08:55:30.292Z,8508
2016-07-11T08:56:30.296Z,8220
2016-07-11T08:57:30.534Z,7812
2016-07-11T08:58:30.314Z,7476
2016-07-11T08:59:30.604Z,7824
2016-07-11T09:00:30.700Z,7976
2016-07-11T09:01:30.421Z,7692
2016-07-11T09:02:31.222Z,7436
2016-07-11T09:03:30.491Z,7344
2016-07-11T09:04:30.302Z,7384
2016-07-11T09:05:30.290Z,7460
2016-07-11T09:06:30.321Z,7192
2016-07-11T09:07:30.537Z,7372
2016-07-11T09:08:30.348Z,7720
2016-07-11T09:09:30.619Z,8212
2016-07-11T09:10:30.626Z,8892
2016-07-11T09:11:30.328Z,8700
2016-07-11T09:12:30.608Z,8720
2016-07-11T09:13:30.403Z,9160
2016-07-11T09:14:30.497Z,9772
2016-07-11T09:15:30.698Z,11144
2016-07-11T09:16:30.403Z,11840
2016-07-11T09:17:30.598Z,11928
2016-07-11T09:18:30.692Z,12704
2016-07-11T09:19:30.731Z,14300
2016-07-11T09:20:30.439Z,15788
2016-07-11T09:21:30.499Z,15692
2016-07-11T09:22:30.630Z,15040
2016-07-11T09:23:30.444Z,14696
2016-07-11T09:24:30.648Z,14408
2016-07-11T09:25:30.447Z,14228
2016-07-11T09:26:30.460Z,13572
2016-07-11T09:27:30.678Z,12692
2016-07-11T09:28:30.471Z,11360
2016-07-11T09:29:30.471Z,10192
2016-07-11T09:30:30.461Z,8596
2016-07-11T09:31:30.753Z,7460
2016-07-11T09:32:30.589Z,7784
2016-07-11T09:33:30.791Z,7880
2016-07-11T09:34:30.497Z,7596
2016-07-11T09:35:30.511Z,7452
2016-07-11T09:36:30.802Z,7380
2016-07-11T09:37:30.782Z,7792
2016-07-11T09:38:30.664Z,8012
2016-07-11T09:39:30.504Z,8232
2016-07-11T09:40:30.507Z,8376
2016-07-11T09:41:30.694Z,8040
2016-07-11T09:42:30.557Z,8676
2016-07-11T09:43:30.568Z,9448
2016-07-11T09:44:30.881Z,10488
2016-07-11T09:45:30.676Z,11360
2016-07-11T09:46:30.620Z,11368
2016-07-11T09:47:30.646Z,10792
2016-07-11T09:48:30.522Z,10660
2016-07-11T09:49:30.699Z,11436
2016-07-11T09:50:31.254Z,11852
2016-07-11T09:51:30.545Z,12816
2016-07-11T09:52:31.328Z,13364
2016-07-11T09:53:30.724Z,14260
2016-07-11T09:54:30.764Z,14404
2016-07-11T09:55:30.619Z,14636
2016-07-11T09:56:30.575Z,15292
2016-07-11T09:57:30.582Z,15164
2016-07-11T09:58:30.588Z,14592
2016-07-11T09:59:30.600Z,14808
2016-07-11T10:00:30.797Z,16736
2016-07-11T10:01:30.841Z,17120
2016-07-11T10:02:30.615Z,17056
2016-07-11T10:03:30.629Z,15824
2016-07-11T10:04:30.922Z,14804
2016-07-11T10:05:30.703Z,14084
2016-07-11T10:06:30.693Z,14044
2016-07-11T10:07:30.717Z,14584
2016-07-11T10:08:30.815Z,13988
2016-07-11T10:09:30.728Z,12496
2016-07-11T10:10:30.797Z,12636
2016-07-11T10:11:30.747Z,9684
2016-07-11T10:12:30.752Z,8956
2016-07-11T10:13:30.882Z,8276
2016-07-11T10:14:31.016Z,6372
2016-07-11T10:15:30.794Z,6300
2016-07-11T10:16:30.740Z,5948
2016-07-11T10:17:30.706Z,5700
2016-07-11T10:18:30.707Z,5604
2016-07-11T10:19:30.717Z,7796
2016-07-11T10:20:30.731Z,7428
2016-07-11T10:21:30.792Z,6272
2016-07-11T10:22:30.793Z,6164
2016-07-11T10:23:30.820Z,6752
2016-07-11T10:24:30.818Z,6856
2016-07-11T10:25:30.827Z,6332
2016-07-11T10:26:30.823Z,6156
2016-07-11T10:27:31.093Z,6660
2016-07-11T10:28:30.785Z,7532
2016-07-11T10:29:30.820Z,7604
2016-07-11T10:30:30.845Z,7372
2016-07-11T10:31:31.603Z,6176
2016-07-11T10:32:31.127Z,6516
2016-07-11T10:33:30.797Z,7164
2016-07-11T10:34:30.861Z,8924
2016-07-11T10:35:31.175Z,9200
2016-07-11T10:36:31.171Z,9260
2016-07-11T10:37:31.032Z,8856
2016-07-11T10:38:30.841Z,8472
2016-07-11T10:39:31.547Z,8416
2016-07-11T10:40:30.849Z,8344
2016-07-11T10:41:30.846Z,8708
2016-07-11T10:42:30.877Z,10688
2016-07-11T10:43:30.857Z,13968
2016-07-11T10:44:30.886Z,12080
2016-07-11T10:45:30.884Z,11900
2016-07-11T10:46:30.886Z,11064
2016-07-11T10:47:30.885Z,11220
2016-07-11T10:48:30.919Z,10912
2016-07-11T10:49:30.927Z,9432
2016-07-11T10:50:30.925Z,9008
2016-07-11T10:51:30.977Z,9592
2016-07-11T10:52:31.190Z,9872
2016-07-11T10:53:31.089Z,10104
2016-07-11T10:54:30.935Z,10304
2016-07-11T10:55:30.940Z,10644
2016-07-11T10:56:30.962Z,10432
2016-07-11T10:57:30.969Z,11024
2016-07-11T10:58:30.988Z,11084
2016-07-11T10:59:31.134Z,10656
2016-07-11T11:00:30.993Z,10356
2016-07-11T11:01:30.967Z,9652
2016-07-11T11:02:31.172Z,9312
2016-07-11T11:03:31.185Z,10148
2016-07-11T11:04:31.148Z,10464
2016-07-11T11:05:31.146Z,10736
2016-07-11T11:06:31.008Z,10932
2016-07-11T11:07:31.299Z,10160
2016-07-11T11:08:31.030Z,9004
2016-07-11T11:09:31.040Z,8164
2016-07-11T11:10:31.327Z,7048
2016-07-11T11:11:31.081Z,6148
2016-07-11T11:12:31.391Z,5712
2016-07-11T11:13:31.800Z,5376
2016-07-11T11:14:31.053Z,4856
2016-07-11T11:15:31.213Z,5192
2016-07-11T11:16:31.058Z,5732
2016-07-11T11:17:31.148Z,5232
2016-07-11T11:18:31.161Z,5108
2016-07-11T11:19:31.148Z,5408
2016-07-11T11:20:31.110Z,5928
2016-07-11T11:21:31.095Z,6672
2016-07-11T11:22:31.101Z,6916
2016-07-11T11:23:32.110Z,6260
2016-07-11T11:24:31.267Z,6028
2016-07-11T11:25:31.135Z,5768
2016-07-11T11:26:31.141Z,7668
2016-07-11T11:27:31.218Z,8248
2016-07-11T11:28:31.327Z,6728
2016-07-11T11:29:31.955Z,6212
2016-07-11T11:30:31.433Z,6684
2016-07-11T11:31:31.153Z,7372
2016-07-11T11:32:31.174Z,6996
2016-07-11T11:33:31.256Z,7532
2016-07-11T11:34:31.469Z,7388
2016-07-11T11:35:31.254Z,8248
2016-07-11T11:36:31.428Z,8880
2016-07-11T11:37:31.537Z,9376
2016-07-11T11:38:31.522Z,9956
2016-07-11T11:39:31.374Z,9588
2016-07-11T11:40:31.388Z,9676
2016-07-11T11:41:31.381Z,9904
2016-07-11T11:42:31.934Z,10488
2016-07-11T11:43:31.230Z,11372
2016-07-11T11:44:31.231Z,11996
2016-07-11T11:45:31.252Z,12824
2016-07-11T11:46:31.258Z,12972
2016-07-11T11:47:31.664Z,13440
2016-07-11T11:48:31.268Z,14316
2016-07-11T11:49:31.398Z,14148
2016-07-11T11:50:31.363Z,11352
2016-07-11T11:51:31.289Z,9872
2016-07-11T11:52:31.329Z,9320
2016-07-11T11:53:31.300Z,9308
2016-07-11T11:54:32.342Z,10468
2016-07-11T11:55:31.461Z,12080
2016-07-11T11:56:31.391Z,13688
2016-07-11T11:57:31.668Z,15240
2016-07-11T11:58:31.351Z,16384
2016-07-11T11:59:31.422Z,17344
2016-07-11T12:00:31.444Z,17632
2016-07-11T12:01:31.598Z,18016
2016-07-11T12:02:31.449Z,17920
2016-07-11T12:03:31.730Z,18080
2016-07-11T12:04:31.563Z,17632
2016-07-11T12:05:31.358Z,15660
2016-07-11T12:06:31.374Z,15776
2016-07-11T12:07:31.378Z,16288
2016-07-11T12:08:31.403Z,16052
2016-07-11T12:09:31.422Z,15812
2016-07-11T12:10:31.435Z,14952
2016-07-11T12:11:31.530Z,14272
2016-07-11T12:12:31.421Z,14336
2016-07-11T12:13:31.499Z,14676
2016-07-11T12:14:31.440Z,15160
2016-07-11T12:15:31.506Z,15360
2016-07-11T12:16:31.464Z,15444
2016-07-11T12:17:31.659Z,15060
2016-07-11T12:18:31.494Z,14100
2016-07-11T12:19:31.542Z,13092
2016-07-11T12:20:31.506Z,12132
2016-07-11T12:21:31.611Z,11344
2016-07-11T12:22:31.765Z,10836
2016-07-11T12:23:31.768Z,10580
2016-07-11T12:24:31.562Z,10792
2016-07-11T12:25:31.587Z,10964
2016-07-11T12:26:31.561Z,11528
2016-07-11T12:27:31.517Z,12384
2016-07-11T12:28:31.540Z,14008
2016-07-11T12:29:31.552Z,15608
2016-07-11T12:30:31.558Z,16640
2016-07-11T12:31:31.710Z,16832
2016-07-11T12:32:31.563Z,17024
2016-07-11T12:33:31.604Z,16704
2016-07-11T12:34:31.924Z,15808
2016-07-11T12:35:31.701Z,15332
2016-07-11T12:36:31.792Z,14960
2016-07-11T12:37:31.795Z,14520
2016-07-11T12:38:31.600Z,13576
2016-07-11T12:39:31.631Z,11924
2016-07-11T12:40:31.630Z,11160
2016-07-11T12:41:31.638Z,10252
2016-07-11T12:42:31.792Z,9968
2016-07-11T12:43:31.646Z,9400
2016-07-11T12:44:31.699Z,9088
2016-07-11T12:45:31.663Z,9424
2016-07-11T12:46:31.690Z,9624
2016-07-11T12:47:31.689Z,9924
2016-07-11T12:48:31.699Z,10076
2016-07-11T12:49:31.770Z,10100
2016-07-11T12:50:31.747Z,10044
2016-07-11T12:51:31.844Z,9808
2016-07-11T12:52:31.699Z,9384
2016-07-11T12:53:32.009Z,9260
2016-07-11T12:54:32.052Z,9104
2016-07-11T12:55:31.822Z,8896
2016-07-11T12:56:31.755Z,9156
2016-07-11T12:57:31.824Z,9832
2016-07-11T12:58:31.805Z,10444
2016-07-11T12:59:31.818Z,10884
2016-07-11T13:00:32.014Z,11184
2016-07-11T13:01:31.791Z,11316
2016-07-11T13:02:31.784Z,11444
2016-07-11T13:03:31.860Z,11764
2016-07-11T13:04:31.861Z,12264
2016-07-11T13:05:31.850Z,12788
2016-07-11T13:06:31.868Z,13148
2016-07-11T13:07:31.963Z,13080
2016-07-11T13:08:31.878Z,12852
2016-07-11T13:09:31.914Z,12384
2016-07-11T13:10:32.175Z,11808
2016-07-11T13:11:31.900Z,11156
2016-07-11T13:12:32.038Z,10532
2016-07-11T13:13:31.977Z,9636
2016-07-11T13:14:31.975Z,8960
2016-07-11T13:15:32.032Z,8304
2016-07-11T13:16:32.250Z,7980
2016-07-11T13:17:32.205Z,7920
2016-07-11T13:18:31.959Z,8164
2016-07-11T13:19:32.016Z,8796
2016-07-11T13:20:31.965Z,9440
2016-07-11T13:21:32.066Z,9892
2016-07-11T13:22:31.947Z,10188
2016-07-11T13:23:33.405Z,10468
2016-07-11T13:24:31.986Z,10600
2016-07-11T13:25:32.255Z,10840
2016-07-11T13:26:31.952Z,10764
2016-07-11T13:27:32.315Z,9960
2016-07-11T13:28:31.949Z,9208